createdAt,value
2022-12-11T00:00:50.046Z,12.07
2022-12-11T00:03:22.587Z,12.38
2022-12-11T00:05:55.768Z,12.65
2022-12-11T00:08:28.355Z,11.15
2022-12-11T00:11:01.045Z,12.88
2022-12-11T00:13:33.636Z,12.10
2022-12-11T00:16:06.764Z,11.80
2022-12-11T00:18:39.875Z,11.20
2022-12-11T00:21:15.373Z,11.63
2022-12-11T00:23:48.128Z,10.77
2022-12-11T00:26:21.069Z,11.55
2022-12-11T00:28:56.521Z,12.27
2022-12-11T00:31:31.896Z,11.82
2022-12-11T00:34:04.546Z,11.32
2022-12-11T00:36:37.093Z,11.73
2022-12-11T00:39:12.032Z,16.60
2022-12-11T00:41:44.544Z,13.30
2022-12-11T00:44:17.065Z,24.65
2022-12-11T00:46:50.028Z,12.80
2022-12-11T00:49:22.577Z,11.35
2022-12-11T00:51:55.126Z,12.63
2022-12-11T00:54:27.648Z,13.05
2022-12-11T00:57:00.296Z,12.07
2022-12-11T00:59:32.868Z,11.55
2022-12-11T01:02:05.426Z,10.82
2022-12-11T01:04:38.102Z,18.58
2022-12-11T01:07:10.839Z,11.63
2022-12-11T01:10:01.833Z,12.93
2022-12-11T01:12:34.673Z,11.27
2022-12-11T01:15:08.043Z,12.82
2022-12-11T01:17:40.960Z,12.68
2022-12-11T01:20:13.532Z,10.18
2022-12-11T01:22:46.271Z,10.90
2022-12-11T01:25:19.120Z,10.73
2022-12-11T01:27:54.025Z,10.90
2022-12-11T01:30:26.804Z,11.32
2022-12-11T01:33:00.807Z,11.43
2022-12-11T01:35:33.401Z,9.75
2022-12-11T01:38:05.958Z,11.68
2022-12-11T01:40:38.548Z,9.57
2022-12-11T01:43:11.831Z,11.75
2022-12-11T01:45:48.171Z,10.52
2022-12-11T01:48:27.397Z,10.45
2022-12-11T01:51:04.994Z,9.65
2022-12-11T01:53:45.749Z,9.48
2022-12-11T01:56:19.221Z,10.38
2022-12-11T01:58:57.508Z,10.70
2022-12-11T02:01:54.208Z,9.90
2022-12-11T02:04:29.440Z,9.40
2022-12-11T02:07:03.583Z,9.70
2022-12-11T02:09:41.276Z,8.70
2022-12-11T02:12:39.243Z,10.55
2022-12-11T02:15:40.184Z,9.38
2022-12-11T02:18:47.992Z,9.88
2022-12-11T02:21:28.460Z,10.15
2022-12-11T02:24:16.235Z,9.13
2022-12-11T02:27:07.727Z,8.98
2022-12-11T02:29:53.732Z,9.13
2022-12-11T02:32:53.255Z,8.70
2022-12-11T02:35:40.755Z,9.30
2022-12-11T02:38:25.135Z,9.75
2022-12-11T02:41:00.705Z,8.73
2022-12-11T02:43:37.196Z,8.05
2022-12-11T02:48:47.227Z,8.75
2022-12-11T02:54:00.492Z,8.23
2022-12-11T02:56:46.357Z,7.63
2022-12-11T02:59:35.689Z,7.35
2022-12-11T03:02:08.621Z,7.45
2022-12-11T03:04:44.715Z,8.30
2022-12-11T03:07:27.473Z,8.43
2022-12-11T03:10:00.760Z,6.65
2022-12-11T03:12:39.686Z,7.05
2022-12-11T03:15:17.151Z,7.78
2022-12-11T03:18:09.737Z,6.40
2022-12-11T03:20:56.675Z,6.53
2022-12-11T03:23:42.069Z,6.38
2022-12-11T03:26:18.768Z,6.90
2022-12-11T03:31:50.185Z,5.93
2022-12-11T03:34:43.963Z,6.18
2022-12-11T03:37:19.814Z,6.63
2022-12-11T03:39:59.213Z,6.10
2022-12-11T03:42:32.633Z,5.30
2022-12-11T03:45:08.737Z,6.53
2022-12-11T03:47:46.234Z,6.60
2022-12-11T03:50:24.777Z,6.03
2022-12-11T03:53:03.705Z,6.40
2022-12-11T03:55:40.549Z,6.50
2022-12-11T03:58:13.370Z,6.28
2022-12-11T04:00:48.843Z,6.35
2022-12-11T04:03:21.806Z,7.45
2022-12-11T04:05:56.017Z,6.22
2022-12-11T04:08:28.646Z,5.70
2022-12-11T04:11:23.009Z,6.38
2022-12-11T04:14:14.156Z,6.40
2022-12-11T04:16:46.956Z,6.13
2022-12-11T04:19:52.690Z,6.15
2022-12-11T04:22:44.126Z,6.10
2022-12-11T04:25:19.966Z,7.13
2022-12-11T04:27:53.420Z,5.78
2022-12-11T04:30:32.336Z,7.13
2022-12-11T04:33:09.472Z,5.80
2022-12-11T04:35:42.004Z,6.28
2022-12-11T04:38:16.013Z,5.45
2022-12-11T04:40:48.631Z,6.63
2022-12-11T04:43:22.104Z,5.88
2022-12-11T04:46:11.227Z,6.65
2022-12-11T04:48:45.249Z,6.45
2022-12-11T04:51:18.722Z,7.07
2022-12-11T04:53:51.219Z,7.15
2022-12-11T04:56:23.972Z,7.88
2022-12-11T04:58:56.543Z,6.43
2022-12-11T05:01:29.224Z,6.70
2022-12-11T05:04:02.304Z,6.03
2022-12-11T05:06:34.896Z,5.80
2022-12-11T05:09:13.921Z,6.18
2022-12-11T05:11:46.495Z,6.80
2022-12-11T05:14:19.852Z,6.00
2022-12-11T05:16:52.406Z,7.85
2022-12-11T05:19:25.920Z,6.72
2022-12-11T05:21:58.486Z,7.28
2022-12-11T05:24:33.302Z,6.53
2022-12-11T05:27:05.972Z,6.13
2022-12-11T05:29:38.676Z,7.07
2022-12-11T05:32:11.234Z,6.10
2022-12-11T05:34:43.953Z,5.63
2022-12-11T05:37:16.673Z,6.50
2022-12-11T05:39:49.348Z,7.15
2022-12-11T05:42:27.165Z,6.20
2022-12-11T05:45:01.479Z,5.85
2022-12-11T05:47:35.773Z,6.15
2022-12-11T05:50:09.092Z,6.07
2022-12-11T05:52:42.011Z,5.97
2022-12-11T05:55:15.013Z,5.88
2022-12-11T05:57:47.619Z,6.90
2022-12-11T06:00:20.505Z,7.13
2022-12-11T06:02:53.141Z,6.22
2022-12-11T06:05:26.839Z,5.30
2022-12-11T06:07:59.400Z,6.40
2022-12-11T06:10:32.853Z,6.10
2022-12-11T06:13:08.341Z,6.13
2022-12-11T06:15:41.027Z,6.00
2022-12-11T06:18:13.764Z,5.65
2022-12-11T06:20:46.324Z,6.15
2022-12-11T06:23:22.064Z,6.35
2022-12-11T06:25:54.677Z,6.20
2022-12-11T06:28:27.328Z,6.60
2022-12-11T06:31:01.120Z,6.50
2022-12-11T06:33:35.376Z,7.05
2022-12-11T06:36:16.691Z,7.47
2022-12-11T06:38:50.437Z,6.70
2022-12-11T06:41:23.042Z,6.35
2022-12-11T06:43:55.763Z,5.88
2022-12-11T06:46:28.475Z,6.28
2022-12-11T06:49:01.098Z,5.75
2022-12-11T06:51:33.848Z,6.40
2022-12-11T06:54:06.391Z,7.25
2022-12-11T06:56:39.014Z,6.72
2022-12-11T06:59:12.781Z,7.10
2022-12-11T07:01:45.816Z,7.85
2022-12-11T07:04:18.401Z,9.02
2022-12-11T07:06:51.152Z,8.15
2022-12-11T07:09:24.692Z,8.25
2022-12-11T07:11:57.644Z,8.15
2022-12-11T07:14:31.190Z,8.40
2022-12-11T07:17:03.795Z,7.65
2022-12-11T07:19:36.384Z,6.07
2022-12-11T07:22:09.057Z,6.05
2022-12-11T07:24:41.958Z,6.57
2022-12-11T07:27:14.521Z,6.30
2022-12-11T07:29:47.048Z,5.53
2022-12-11T07:32:19.665Z,6.10
2022-12-11T07:34:52.437Z,6.93
2022-12-11T07:37:25.309Z,8.63
2022-12-11T07:39:57.949Z,6.38
2022-12-11T07:42:30.560Z,6.88
2022-12-11T07:45:03.409Z,7.07
2022-12-11T07:47:36.062Z,7.85
2022-12-11T07:50:10.297Z,6.70
2022-12-11T07:52:42.872Z,7.93
2022-12-11T07:55:17.065Z,6.80
2022-12-11T07:57:49.807Z,7.18
2022-12-11T08:00:22.687Z,7.40
2022-12-11T08:02:55.308Z,7.70
2022-12-11T08:05:27.965Z,7.32
2022-12-11T08:08:00.592Z,6.78
2022-12-11T08:10:33.505Z,7.25
2022-12-11T08:13:06.321Z,6.20
2022-12-11T08:15:39.085Z,6.80
2022-12-11T08:18:11.782Z,7.13
2022-12-11T08:20:44.327Z,6.43
2022-12-11T08:23:17.088Z,6.88
2022-12-11T08:25:49.790Z,7.28
2022-12-11T08:28:23.953Z,7.97
2022-12-11T08:30:57.549Z,6.57
2022-12-11T08:33:30.562Z,7.18
2022-12-11T08:36:05.423Z,7.63
2022-12-11T08:38:38.393Z,7.45
2022-12-11T08:41:15.922Z,8.13
2022-12-11T08:43:48.768Z,7.53
2022-12-11T08:46:32.556Z,6.28
2022-12-11T08:49:05.153Z,7.32
2022-12-11T08:51:38.043Z,7.53
2022-12-11T08:54:11.746Z,6.90
2022-12-11T08:56:44.604Z,7.28
2022-12-11T08:59:18.739Z,6.57
2022-12-11T09:01:52.298Z,6.75
2022-12-11T09:04:27.161Z,7.90
2022-12-11T09:06:59.817Z,6.35
2022-12-11T09:09:32.439Z,6.25
2022-12-11T09:12:07.902Z,7.55
2022-12-11T09:14:40.427Z,6.90
2022-12-11T09:17:12.963Z,6.28
2022-12-11T09:19:48.073Z,7.28
2022-12-11T09:22:20.687Z,6.20
2022-12-11T09:24:56.260Z,7.03
2022-12-11T09:27:32.237Z,6.55
2022-12-11T09:30:05.768Z,7.53
2022-12-11T09:32:39.825Z,7.65
2022-12-11T09:35:14.969Z,7.90
2022-12-11T09:37:47.543Z,6.25
2022-12-11T09:40:20.638Z,7.03
2022-12-11T09:43:03.622Z,6.80
2022-12-11T09:45:36.294Z,7.63
2022-12-11T09:48:11.762Z,7.22
2022-12-11T09:50:48.159Z,7.65
2022-12-11T09:53:34.279Z,6.88
2022-12-11T09:56:26.112Z,6.45
2022-12-11T09:59:35.705Z,7.70
2022-12-11T10:02:45.242Z,5.68
2022-12-11T10:05:42.791Z,6.95
2022-12-11T10:09:12.225Z,6.35
2022-12-11T10:12:33.733Z,7.20
2022-12-11T10:15:23.603Z,6.40
2022-12-11T10:18:04.958Z,6.13
2022-12-11T10:20:40.456Z,11.25
2022-12-11T10:23:21.931Z,19.23
2022-12-11T10:26:23.133Z,8.23
2022-12-11T10:29:01.349Z,9.73
2022-12-11T10:31:58.915Z,8.43
2022-12-11T10:34:37.709Z,6.72
2022-12-11T10:37:10.303Z,6.07
2022-12-11T10:39:43.030Z,6.80
2022-12-11T10:42:22.484Z,6.68
2022-12-11T10:45:04.873Z,7.13
2022-12-11T10:47:37.630Z,5.68
2022-12-11T10:50:26.215Z,6.88
2022-12-11T10:53:01.947Z,6.97
2022-12-11T10:55:45.657Z,6.70
2022-12-11T10:58:26.724Z,6.60
2022-12-11T11:01:16.761Z,5.93
2022-12-11T11:04:06.647Z,9.68
2022-12-11T11:06:39.288Z,6.22
2022-12-11T11:09:36.053Z,8.20
2022-12-11T11:12:28.311Z,6.88
2022-12-11T11:15:15.528Z,6.55
2022-12-11T11:17:55.510Z,6.75
2022-12-11T11:20:31.706Z,7.18
2022-12-11T11:23:15.518Z,7.32
2022-12-11T11:26:07.522Z,5.90
2022-12-11T11:28:47.994Z,6.28
2022-12-11T11:31:31.502Z,6.82
2022-12-11T11:34:16.112Z,6.15
2022-12-11T11:37:05.979Z,6.13
2022-12-11T11:39:45.255Z,6.30
2022-12-11T11:42:36.372Z,7.55
2022-12-11T11:45:31.616Z,5.78
2022-12-11T11:48:45.516Z,6.38
2022-12-11T11:51:30.711Z,6.32
2022-12-11T11:54:37.424Z,6.70
2022-12-11T11:57:23.236Z,7.75
2022-12-11T12:00:10.823Z,6.45
2022-12-11T12:02:47.110Z,7.35
2022-12-11T12:05:32.022Z,7.00
2022-12-11T12:08:53.815Z,6.63
2022-12-11T12:11:32.740Z,5.40
2022-12-11T12:17:41.163Z,5.93
2022-12-11T12:20:38.918Z,5.72
2022-12-11T12:23:52.999Z,6.10
2022-12-11T12:26:37.234Z,6.95
2022-12-11T12:29:44.212Z,9.80
2022-12-11T12:32:55.379Z,7.68
2022-12-11T12:35:36.020Z,5.63
2022-12-11T12:38:32.883Z,5.90
2022-12-11T12:41:44.948Z,5.50
2022-12-11T12:44:22.610Z,6.88
2022-12-11T12:47:13.283Z,5.68
2022-12-11T12:49:50.098Z,6.30
2022-12-11T12:52:39.518Z,6.05
2022-12-11T12:55:23.635Z,5.60
2022-12-11T12:58:01.001Z,6.03
2022-12-11T13:00:42.662Z,5.80
2022-12-11T13:03:22.492Z,6.40
2022-12-11T13:06:24.737Z,5.35
2022-12-11T13:09:16.389Z,5.72
2022-12-11T13:11:55.120Z,5.63
2022-12-11T13:14:33.655Z,6.03
2022-12-11T13:17:27.006Z,5.68
2022-12-11T13:20:22.762Z,6.53
2022-12-11T13:23:10.277Z,6.35
2022-12-11T13:25:57.265Z,5.82
2022-12-11T13:28:33.870Z,6.50
2022-12-11T13:31:15.513Z,6.25
2022-12-11T13:33:52.909Z,5.57
2022-12-11T13:36:40.429Z,5.97
2022-12-11T13:39:25.146Z,6.20
2022-12-11T13:42:25.195Z,8.10
2022-12-11T13:44:58.973Z,7.65
2022-12-11T13:47:33.260Z,10.10
2022-12-11T13:50:26.311Z,8.52
2022-12-11T13:53:03.300Z,6.13
2022-12-11T13:55:36.098Z,6.18
2022-12-11T13:58:23.508Z,8.38
2022-12-11T14:01:22.134Z,6.18
2022-12-11T14:04:04.764Z,8.23
2022-12-11T14:06:39.854Z,10.10
2022-12-11T14:09:24.121Z,6.13
2022-12-11T14:11:59.065Z,7.13
2022-12-11T14:14:39.869Z,7.10
2022-12-11T14:17:25.973Z,6.68
2022-12-11T14:20:03.575Z,6.22
2022-12-11T14:22:39.415Z,6.88
2022-12-11T14:25:26.391Z,6.35
2022-12-11T14:27:59.001Z,6.47
2022-12-11T14:30:36.022Z,6.10
2022-12-11T14:33:11.808Z,6.05
2022-12-11T14:35:50.258Z,6.35
2022-12-11T14:38:37.417Z,6.90
2022-12-11T14:41:40.430Z,7.00
2022-12-11T14:44:21.660Z,6.72
2022-12-11T14:47:24.213Z,6.80
2022-12-11T14:52:48.056Z,6.60
2022-12-11T14:55:30.321Z,7.88
2022-12-11T14:58:15.048Z,9.88
2022-12-11T15:01:22.771Z,7.03
2022-12-11T15:04:26.852Z,8.02
2022-12-11T15:07:00.169Z,8.95
2022-12-11T15:09:36.130Z,8.02
2022-12-11T15:12:16.692Z,7.60
2022-12-11T15:14:58.411Z,8.02
2022-12-11T15:17:31.355Z,6.50
2022-12-11T15:20:11.616Z,6.78
2022-12-11T15:22:44.621Z,7.15
2022-12-11T15:25:25.133Z,9.07
2022-12-11T15:28:00.936Z,11.13
2022-12-11T15:30:35.807Z,8.90
2022-12-11T15:33:11.326Z,6.43
2022-12-11T15:35:57.941Z,6.80
2022-12-11T15:38:41.788Z,7.10
2022-12-11T15:41:21.037Z,6.75
2022-12-11T15:43:59.191Z,7.07
2022-12-11T15:46:36.310Z,7.05
2022-12-11T15:49:13.261Z,6.22
2022-12-11T15:51:48.277Z,5.97
2022-12-11T15:54:21.147Z,5.97
2022-12-11T15:56:54.402Z,5.20
2022-12-11T15:59:27.956Z,5.22
2022-12-11T16:02:00.463Z,5.28
2022-12-11T16:04:32.941Z,5.35
2022-12-11T16:07:13.063Z,4.97
2022-12-11T16:09:47.038Z,5.03
2022-12-11T16:12:19.625Z,5.57
2022-12-11T16:14:52.492Z,5.50
2022-12-11T16:17:28.071Z,6.45
2022-12-11T16:20:00.607Z,5.65
2022-12-11T16:22:33.302Z,6.70
2022-12-11T16:25:06.632Z,5.55
2022-12-11T16:27:39.211Z,5.68
2022-12-11T16:30:13.342Z,6.35
2022-12-11T16:32:46.105Z,5.18
2022-12-11T16:35:20.723Z,6.47
2022-12-11T16:37:54.775Z,6.97
2022-12-11T16:40:27.402Z,8.27
2022-12-11T16:42:59.956Z,5.75
2022-12-11T16:45:33.890Z,5.70
2022-12-11T16:48:06.521Z,5.85
2022-12-11T16:50:40.429Z,5.85
2022-12-11T16:53:14.624Z,5.00
2022-12-11T16:55:47.249Z,5.10
2022-12-11T16:58:20.184Z,4.82
2022-12-11T17:00:53.303Z,4.65
2022-12-11T17:03:25.979Z,4.78
2022-12-11T17:05:59.234Z,4.97
2022-12-11T17:08:34.056Z,5.13
2022-12-11T17:11:11.853Z,5.13
2022-12-11T17:13:45.148Z,4.35
2022-12-11T17:16:17.705Z,5.35
2022-12-11T17:18:50.626Z,5.97
2022-12-11T17:21:25.210Z,5.53
2022-12-11T17:23:57.719Z,5.85
2022-12-11T17:26:30.332Z,5.63
2022-12-11T17:29:03.477Z,6.00
2022-12-11T17:31:36.038Z,5.72
2022-12-11T17:34:08.676Z,6.13
2022-12-11T17:36:41.504Z,6.22
2022-12-11T17:39:14.112Z,5.80
2022-12-11T17:41:46.675Z,6.40
2022-12-11T17:44:19.456Z,6.05
2022-12-11T17:46:52.894Z,5.85
2022-12-11T17:49:26.381Z,6.22
2022-12-11T17:51:59.401Z,5.07
2022-12-11T17:54:32.064Z,6.13
2022-12-11T17:57:06.492Z,5.80
2022-12-11T17:59:39.376Z,5.22
2022-12-11T18:02:12.258Z,5.07
2022-12-11T18:04:45.044Z,6.55
2022-12-11T18:07:19.624Z,7.63
2022-12-11T18:09:52.823Z,5.35
2022-12-11T18:12:25.834Z,5.68
2022-12-11T18:15:03.432Z,5.47
2022-12-11T18:17:36.186Z,5.07
2022-12-11T18:20:14.589Z,5.88
2022-12-11T18:22:47.632Z,5.80
2022-12-11T18:25:20.359Z,6.53
2022-12-11T18:27:55.162Z,5.82
2022-12-11T18:30:28.808Z,5.53
2022-12-11T18:33:01.452Z,6.70
2022-12-11T18:35:34.249Z,5.45
2022-12-11T18:38:07.789Z,7.03
2022-12-11T18:40:40.293Z,6.38
2022-12-11T18:43:13.318Z,6.32
2022-12-11T18:45:46.674Z,6.60
2022-12-11T18:48:19.211Z,6.30
2022-12-11T18:50:52.606Z,6.35
2022-12-11T18:53:25.311Z,6.75
2022-12-11T18:56:00.548Z,5.88
2022-12-11T18:58:34.001Z,5.88
2022-12-11T19:01:16.397Z,6.63
2022-12-11T19:03:51.570Z,7.07
2022-12-11T19:06:28.654Z,6.75
2022-12-11T19:09:04.231Z,7.93
2022-12-11T19:11:40.579Z,7.80
2022-12-11T19:14:13.832Z,6.65
2022-12-11T19:16:46.625Z,8.02
2022-12-11T19:19:22.109Z,7.65
2022-12-11T19:21:54.812Z,8.07
2022-12-11T19:24:27.843Z,6.45
2022-12-11T19:27:00.421Z,7.35
2022-12-11T19:29:33.136Z,7.82
2022-12-11T19:32:05.916Z,6.72
2022-12-11T19:34:38.548Z,6.75
2022-12-11T19:37:11.221Z,7.18
2022-12-11T19:39:43.714Z,7.13
2022-12-11T19:42:16.294Z,7.35
2022-12-11T19:44:48.945Z,7.70
2022-12-11T19:47:21.541Z,7.97
2022-12-11T19:49:54.175Z,6.75
2022-12-11T19:52:27.373Z,7.43
2022-12-11T19:55:04.738Z,7.55
2022-12-11T19:57:37.503Z,7.22
2022-12-11T20:00:10.796Z,8.05
2022-12-11T20:02:43.365Z,7.93
2022-12-11T20:05:16.548Z,8.18
2022-12-11T20:07:49.164Z,7.80
2022-12-11T20:10:21.802Z,7.05
2022-12-11T20:12:59.056Z,7.43
2022-12-11T20:15:32.073Z,8.07
2022-12-11T20:18:05.014Z,7.30
2022-12-11T20:20:38.240Z,7.53
2022-12-11T20:23:10.836Z,8.52
2022-12-11T20:25:43.454Z,8.10
2022-12-11T20:28:16.016Z,7.80
2022-12-11T20:30:50.019Z,9.07
2022-12-11T20:33:22.589Z,7.88
2022-12-11T20:35:55.186Z,8.07
2022-12-11T20:38:34.127Z,8.07
2022-12-11T20:41:12.005Z,7.90
2022-12-11T20:43:45.469Z,8.25
2022-12-11T20:46:18.603Z,7.80
2022-12-11T20:48:51.776Z,8.32
2022-12-11T20:51:26.611Z,8.73
2022-12-11T20:53:59.804Z,9.15
2022-12-11T20:56:32.644Z,8.55
2022-12-11T20:59:05.776Z,8.43
2022-12-11T21:01:40.151Z,8.77
2022-12-11T21:04:13.000Z,7.85
2022-12-11T21:06:45.719Z,6.70
2022-12-11T21:09:18.268Z,7.72
2022-12-11T21:11:51.356Z,8.88
2022-12-11T21:14:24.859Z,8.43
2022-12-11T21:16:59.307Z,8.50
2022-12-11T21:19:31.926Z,7.60
2022-12-11T21:22:04.627Z,8.38
2022-12-11T21:24:37.215Z,7.43
2022-12-11T21:27:10.041Z,7.75
2022-12-11T21:29:42.692Z,9.32
2022-12-11T21:32:15.188Z,8.00
2022-12-11T21:34:50.424Z,7.88
2022-12-11T21:37:23.344Z,7.57
2022-12-11T21:40:00.198Z,7.50
2022-12-11T21:42:32.762Z,7.40
2022-12-11T21:47:59.253Z,7.18
2022-12-11T21:50:32.045Z,7.50
2022-12-11T21:53:04.663Z,7.65
2022-12-11T21:55:41.437Z,7.95
2022-12-11T21:58:13.962Z,7.63
2022-12-11T22:00:46.629Z,7.72
2022-12-11T22:03:19.188Z,7.60
2022-12-11T22:05:51.766Z,7.10
2022-12-11T22:08:24.369Z,7.88
2022-12-11T22:10:57.163Z,6.78
2022-12-11T22:13:29.739Z,8.90
2022-12-11T22:16:02.486Z,6.95
2022-12-11T22:18:35.053Z,7.70
2022-12-11T22:21:08.048Z,7.75
2022-12-11T22:23:42.907Z,7.15
2022-12-11T22:26:20.662Z,6.50
2022-12-11T22:28:54.735Z,7.68
2022-12-11T22:31:28.145Z,7.65
2022-12-11T22:34:00.675Z,8.30
2022-12-11T22:36:33.200Z,8.30
2022-12-11T22:39:05.798Z,8.02
2022-12-11T22:41:41.968Z,7.85
2022-12-11T22:44:19.882Z,8.35
2022-12-11T22:46:52.529Z,7.13
2022-12-11T22:49:25.016Z,7.55
2022-12-11T22:51:57.691Z,8.48
2022-12-11T22:54:30.880Z,8.23
2022-12-11T22:57:03.613Z,8.98
2022-12-11T22:59:36.643Z,7.93
2022-12-11T23:02:09.344Z,7.82
2022-12-11T23:04:41.950Z,9.07
2022-12-11T23:07:14.615Z,8.35
2022-12-11T23:09:47.108Z,8.38
2022-12-11T23:12:19.724Z,8.13
2022-12-11T23:14:52.304Z,8.15
2022-12-11T23:17:25.100Z,7.53
2022-12-11T23:19:57.675Z,8.10
2022-12-11T23:22:30.614Z,7.57
2022-12-11T23:25:04.230Z,8.65
2022-12-11T23:27:36.779Z,8.13
2022-12-11T23:30:10.707Z,8.40
2022-12-11T23:32:43.362Z,8.02
2022-12-11T23:35:15.919Z,9.13
2022-12-11T23:37:48.491Z,8.98
2022-12-11T23:40:21.050Z,8.30
2022-12-11T23:42:53.629Z,8.27
2022-12-11T23:45:26.199Z,8.25
2022-12-11T23:47:58.758Z,8.93
2022-12-11T23:50:32.838Z,9.00
2022-12-11T23:53:05.832Z,9.38
2022-12-11T23:55:43.729Z,7.93
2022-12-11T23:58:16.237Z,7.50
